首页
METAR-TAF:

METAR-TAF

机场 :

阿布鲁佐国际机场

佩斯卡拉, 意大利

纬度: 42-26N, 经度: 014-12E, 海拔: 10米

当前天气观测

该预报发布于15分钟前的11:50 UTC
风速5节,风向西,在北转西北之间变化
温度 15°C
湿度 39%
气压 1022 hPa
能见度10公里或以上

METAR: LIBP 201150Z AUTO 28005KT 190V340 9999 NCD 15/01 Q1022

时间: 13:05 (12:05 UTC)

预报

该预报发布于1小时和5分钟前的11:00 UTC
预报有效从20日的 12点(UTC)到 21日的 12点(UTC)
风速12节,风向西南
能见度10公里或以上
1500米以下无云,无积雨云

TAF: LIBP 201100Z 2012/2112 22012KT CAVOK

超过4000个机场的气象观测和天气预报(METAR&TAF报告)。

可查询的气象台以黄色和红色小点在地图上表示。

将鼠标移到小点上方,可查看气象台名称。

然后点击查看天气观测和预报。

如需切换地图:点击带黑十字的绿色按钮放大地图;点击带横线的绿色按钮缩小地图;或者点击绿色箭头查看邻近地区的地图。


METAR-TAF: